sensor_id;sensor_type;location;lat;lon;timestamp;P1;durP1;ratioP1;P2;durP2;ratioP2
66639;SDS011;53549;52.164;5.604;2023-04-10T00:01:31;4.68;;;2.70;;
66639;SDS011;53549;52.164;5.604;2023-04-10T00:03:59;5.40;;;2.88;;
66639;SDS011;53549;52.164;5.604;2023-04-10T00:06:25;4.85;;;2.90;;
66639;SDS011;53549;52.164;5.604;2023-04-10T00:08:52;5.55;;;2.67;;
66639;SDS011;53549;52.164;5.604;2023-04-10T00:11:17;4.68;;;2.90;;
66639;SDS011;53549;52.164;5.604;2023-04-10T00:13:42;4.95;;;3.00;;
66639;SDS011;53549;52.164;5.604;2023-04-10T00:16:08;4.85;;;3.05;;
66639;SDS011;53549;52.164;5.604;2023-04-10T00:18:33;5.15;;;2.85;;
66639;SDS011;53549;52.164;5.604;2023-04-10T00:20:58;4.35;;;2.80;;
66639;SDS011;53549;52.164;5.604;2023-04-10T00:23:23;4.68;;;3.08;;
66639;SDS011;53549;52.164;5.604;2023-04-10T00:25:50;4.43;;;2.80;;
66639;SDS011;53549;52.164;5.604;2023-04-10T00:28:15;5.97;;;3.30;;
66639;SDS011;53549;52.164;5.604;2023-04-10T00:30:41;5.53;;;2.97;;
66639;SDS011;53549;52.164;5.604;2023-04-10T00:33:06;5.20;;;3.13;;
66639;SDS011;53549;52.164;5.604;2023-04-10T00:35:31;5.40;;;3.20;;
66639;SDS011;53549;52.164;5.604;2023-04-10T00:37:57;5.25;;;3.30;;
66639;SDS011;53549;52.164;5.604;2023-04-10T00:40:23;6.22;;;3.15;;
66639;SDS011;53549;52.164;5.604;2023-04-10T00:42:48;4.28;;;2.83;;
66639;SDS011;53549;52.164;5.604;2023-04-10T00:45:13;5.10;;;3.15;;
66639;SDS011;53549;52.164;5.604;2023-04-10T00:47:39;4.65;;;3.13;;
66639;SDS011;53549;52.164;5.604;2023-04-10T00:50:04;4.25;;;2.78;;
66639;SDS011;53549;52.164;5.604;2023-04-10T00:52:30;4.70;;;2.92;;
66639;SDS011;53549;52.164;5.604;2023-04-10T00:54:56;3.92;;;2.75;;
66639;SDS011;53549;52.164;5.604;2023-04-10T00:57:22;4.95;;;3.20;;
66639;SDS011;53549;52.164;5.604;2023-04-10T00:59:48;4.90;;;3.08;;
66639;SDS011;53549;52.164;5.604;2023-04-10T01:02:16;4.95;;;3.15;;
66639;SDS011;53549;52.164;5.604;2023-04-10T01:04:41;4.93;;;3.05;;
66639;SDS011;53549;52.164;5.604;2023-04-10T01:12:58;4.82;;;3.00;;
66639;SDS011;53549;52.164;5.604;2023-04-10T01:15:36;4.45;;;2.67;;
66639;SDS011;53549;52.164;5.604;2023-04-10T01:21:26;4.75;;;3.03;;
66639;SDS011;53549;52.164;5.604;2023-04-10T01:23:53;4.63;;;3.03;;
66639;SDS011;53549;52.164;5.604;2023-04-10T01:26:41;4.50;;;2.90;;
66639;SDS011;53549;52.164;5.604;2023-04-10T01:29:22;4.07;;;2.80;;
66639;SDS011;53549;52.164;5.604;2023-04-10T01:34:21;4.70;;;2.90;;
66639;SDS011;53549;52.164;5.604;2023-04-10T01:36:56;4.65;;;2.95;;
66639;SDS011;53549;52.164;5.604;2023-04-10T01:39:24;4.75;;;3.08;;
66639;SDS011;53549;52.164;5.604;2023-04-10T01:41:51;4.97;;;3.20;;
66639;SDS011;53549;52.164;5.604;2023-04-10T01:44:17;5.03;;;3.30;;
66639;SDS011;53549;52.164;5.604;2023-04-10T01:46:47;5.20;;;2.88;;
66639;SDS011;53549;52.164;5.604;2023-04-10T01:49:13;4.47;;;3.00;;
66639;SDS011;53549;52.164;5.604;2023-04-10T01:51:38;4.68;;;2.95;;
66639;SDS011;53549;52.164;5.604;2023-04-10T01:54:04;5.10;;;3.03;;
66639;SDS011;53549;52.164;5.604;2023-04-10T01:56:29;5.18;;;3.05;;
66639;SDS011;53549;52.164;5.604;2023-04-10T01:58:56;5.57;;;3.10;;
66639;SDS011;53549;52.164;5.604;2023-04-10T02:01:22;5.35;;;3.13;;
66639;SDS011;53549;52.164;5.604;2023-04-10T02:03:47;4.53;;;2.97;;
66639;SDS011;53549;52.164;5.604;2023-04-10T02:06:14;4.28;;;2.90;;
66639;SDS011;53549;52.164;5.604;2023-04-10T02:08:59;4.47;;;2.92;;
66639;SDS011;53549;52.164;5.604;2023-04-10T02:11:50;5.50;;;2.80;;
66639;SDS011;53549;52.164;5.604;2023-04-10T02:14:17;4.45;;;2.78;;
66639;SDS011;53549;52.164;5.604;2023-04-10T02:16:44;4.40;;;2.92;;
66639;SDS011;53549;52.164;5.604;2023-04-10T02:19:10;4.72;;;2.90;;
66639;SDS011;53549;52.164;5.604;2023-04-10T02:21:37;3.55;;;2.50;;
66639;SDS011;53549;52.164;5.604;2023-04-10T02:24:04;4.43;;;2.92;;
66639;SDS011;53549;52.164;5.604;2023-04-10T02:26:30;4.38;;;2.83;;
66639;SDS011;53549;52.164;5.604;2023-04-10T02:29:08;4.80;;;2.90;;
66639;SDS011;53549;52.164;5.604;2023-04-10T02:31:33;4.53;;;2.88;;
66639;SDS011;53549;52.164;5.604;2023-04-10T02:33:59;5.78;;;2.95;;
66639;SDS011;53549;52.164;5.604;2023-04-10T02:36:24;4.43;;;2.70;;
66639;SDS011;53549;52.164;5.604;2023-04-10T02:38:49;3.63;;;2.47;;
66639;SDS011;53549;52.164;5.604;2023-04-10T02:41:15;4.55;;;2.53;;
66639;SDS011;53549;52.164;5.604;2023-04-10T02:43:41;4.32;;;2.60;;
66639;SDS011;53549;52.164;5.604;2023-04-10T02:46:06;4.28;;;2.58;;
66639;SDS011;53549;52.164;5.604;2023-04-10T02:48:31;4.20;;;2.72;;
66639;SDS011;53549;52.164;5.604;2023-04-10T02:50:57;4.07;;;2.70;;
66639;SDS011;53549;52.164;5.604;2023-04-10T02:53:22;4.18;;;2.55;;
66639;SDS011;53549;52.164;5.604;2023-04-10T02:55:49;4.82;;;2.80;;
66639;SDS011;53549;52.164;5.604;2023-04-10T02:58:16;4.97;;;2.80;;
66639;SDS011;53549;52.164;5.604;2023-04-10T03:00:46;4.60;;;2.70;;
66639;SDS011;53549;52.164;5.604;2023-04-10T03:03:12;5.35;;;2.85;;
66639;SDS011;53549;52.164;5.604;2023-04-10T03:05:37;4.65;;;2.80;;
66639;SDS011;53549;52.164;5.604;2023-04-10T03:08:03;3.92;;;2.42;;
66639;SDS011;53549;52.164;5.604;2023-04-10T03:10:28;4.07;;;2.50;;
66639;SDS011;53549;52.164;5.604;2023-04-10T03:12:54;3.92;;;2.60;;
66639;SDS011;53549;52.164;5.604;2023-04-10T03:15:19;4.45;;;2.65;;
66639;SDS011;53549;52.164;5.604;2023-04-10T03:17:45;4.25;;;2.65;;
66639;SDS011;53549;52.164;5.604;2023-04-10T03:20:11;4.15;;;2.53;;
66639;SDS011;53549;52.164;5.604;2023-04-10T03:22:37;5.07;;;2.58;;
66639;SDS011;53549;52.164;5.604;2023-04-10T03:25:03;4.13;;;2.60;;
66639;SDS011;53549;52.164;5.604;2023-04-10T03:27:29;3.88;;;2.60;;
66639;SDS011;53549;52.164;5.604;2023-04-10T03:29:56;4.13;;;2.65;;
66639;SDS011;53549;52.164;5.604;2023-04-10T03:32:21;4.28;;;2.72;;
66639;SDS011;53549;52.164;5.604;2023-04-10T03:34:46;4.00;;;2.58;;
66639;SDS011;53549;52.164;5.604;2023-04-10T03:37:12;5.07;;;2.70;;
66639;SDS011;53549;52.164;5.604;2023-04-10T03:39:37;4.00;;;2.50;;
66639;SDS011;53549;52.164;5.604;2023-04-10T03:42:02;3.70;;;2.50;;
66639;SDS011;53549;52.164;5.604;2023-04-10T03:44:28;4.43;;;2.40;;
66639;SDS011;53549;52.164;5.604;2023-04-10T03:46:53;4.60;;;2.70;;
66639;SDS011;53549;52.164;5.604;2023-04-10T03:49:18;4.43;;;2.78;;
66639;SDS011;53549;52.164;5.604;2023-04-10T03:51:44;3.65;;;2.40;;
66639;SDS011;53549;52.164;5.604;2023-04-10T03:54:10;3.75;;;2.40;;
66639;SDS011;53549;52.164;5.604;2023-04-10T03:56:35;3.75;;;2.53;;
66639;SDS011;53549;52.164;5.604;2023-04-10T03:59:00;3.83;;;2.45;;
66639;SDS011;53549;52.164;5.604;2023-04-10T04:01:26;4.10;;;2.33;;
66639;SDS011;53549;52.164;5.604;2023-04-10T04:03:51;4.35;;;2.53;;
66639;SDS011;53549;52.164;5.604;2023-04-10T04:06:16;4.30;;;2.58;;
66639;SDS011;53549;52.164;5.604;2023-04-10T04:08:42;4.60;;;2.60;;
66639;SDS011;53549;52.164;5.604;2023-04-10T04:11:07;3.83;;;2.30;;
66639;SDS011;53549;52.164;5.604;2023-04-10T04:13:33;4.68;;;2.75;;
66639;SDS011;53549;52.164;5.604;2023-04-10T04:15:58;4.20;;;2.38;;
66639;SDS011;53549;52.164;5.604;2023-04-10T04:18:23;3.33;;;2.15;;
66639;SDS011;53549;52.164;5.604;2023-04-10T04:20:49;4.10;;;2.30;;
66639;SDS011;53549;52.164;5.604;2023-04-10T04:23:14;4.07;;;2.53;;
66639;SDS011;53549;52.164;5.604;2023-04-10T04:25:41;3.80;;;2.40;;
66639;SDS011;53549;52.164;5.604;2023-04-10T04:28:07;4.00;;;2.47;;
66639;SDS011;53549;52.164;5.604;2023-04-10T04:30:33;3.65;;;2.38;;
66639;SDS011;53549;52.164;5.604;2023-04-10T04:32:59;4.07;;;2.40;;
66639;SDS011;53549;52.164;5.604;2023-04-10T04:35:24;3.95;;;2.60;;
66639;SDS011;53549;52.164;5.604;2023-04-10T04:37:49;3.85;;;2.42;;
66639;SDS011;53549;52.164;5.604;2023-04-10T04:40:15;4.43;;;2.60;;
66639;SDS011;53549;52.164;5.604;2023-04-10T04:42:40;3.50;;;2.22;;
66639;SDS011;53549;52.164;5.604;2023-04-10T04:45:06;3.60;;;2.25;;
66639;SDS011;53549;52.164;5.604;2023-04-10T04:47:32;4.30;;;2.45;;
66639;SDS011;53549;52.164;5.604;2023-04-10T04:49:57;3.85;;;2.40;;
66639;SDS011;53549;52.164;5.604;2023-04-10T04:52:22;4.10;;;2.40;;
66639;SDS011;53549;52.164;5.604;2023-04-10T04:54:49;3.97;;;2.15;;
66639;SDS011;53549;52.164;5.604;2023-04-10T04:57:14;4.20;;;2.38;;
66639;SDS011;53549;52.164;5.604;2023-04-10T04:59:40;3.35;;;2.20;;
66639;SDS011;53549;52.164;5.604;2023-04-10T05:02:05;3.78;;;2.20;;
66639;SDS011;53549;52.164;5.604;2023-04-10T05:04:30;3.70;;;2.17;;
66639;SDS011;53549;52.164;5.604;2023-04-10T05:06:56;3.47;;;2.30;;
66639;SDS011;53549;52.164;5.604;2023-04-10T05:09:21;4.03;;;2.22;;
66639;SDS011;53549;52.164;5.604;2023-04-10T05:11:46;3.90;;;2.60;;
66639;SDS011;53549;52.164;5.604;2023-04-10T05:14:12;3.45;;;2.20;;
66639;SDS011;53549;52.164;5.604;2023-04-10T05:16:37;3.45;;;2.03;;
66639;SDS011;53549;52.164;5.604;2023-04-10T05:19:02;3.60;;;2.30;;
66639;SDS011;53549;52.164;5.604;2023-04-10T05:21:28;3.22;;;2.00;;
66639;SDS011;53549;52.164;5.604;2023-04-10T05:23:53;3.63;;;2.22;;
66639;SDS011;53549;52.164;5.604;2023-04-10T05:26:18;4.00;;;2.42;;
66639;SDS011;53549;52.164;5.604;2023-04-10T05:28:44;3.83;;;2.10;;
66639;SDS011;53549;52.164;5.604;2023-04-10T05:31:09;3.85;;;2.33;;
66639;SDS011;53549;52.164;5.604;2023-04-10T05:33:35;3.25;;;2.13;;
66639;SDS011;53549;52.164;5.604;2023-04-10T05:36:00;3.42;;;2.10;;
66639;SDS011;53549;52.164;5.604;2023-04-10T05:38:26;3.67;;;2.30;;
66639;SDS011;53549;52.164;5.604;2023-04-10T05:40:51;3.53;;;2.15;;
66639;SDS011;53549;52.164;5.604;2023-04-10T05:43:16;3.35;;;2.17;;
66639;SDS011;53549;52.164;5.604;2023-04-10T05:45:43;3.42;;;2.03;;
66639;SDS011;53549;52.164;5.604;2023-04-10T05:48:09;3.33;;;2.10;;
66639;SDS011;53549;52.164;5.604;2023-04-10T05:50:34;3.55;;;2.33;;
66639;SDS011;53549;52.164;5.604;2023-04-10T05:53:00;3.45;;;2.03;;
66639;SDS011;53549;52.164;5.604;2023-04-10T05:55:25;3.65;;;2.33;;
66639;SDS011;53549;52.164;5.604;2023-04-10T05:57:50;2.85;;;2.03;;
66639;SDS011;53549;52.164;5.604;2023-04-10T06:00:16;4.03;;;2.20;;
66639;SDS011;53549;52.164;5.604;2023-04-10T06:02:42;4.30;;;2.40;;
66639;SDS011;53549;52.164;5.604;2023-04-10T06:05:07;4.03;;;2.40;;
66639;SDS011;53549;52.164;5.604;2023-04-10T06:07:33;3.25;;;2.03;;
66639;SDS011;53549;52.164;5.604;2023-04-10T06:09:58;4.07;;;2.58;;
66639;SDS011;53549;52.164;5.604;2023-04-10T06:12:23;3.60;;;2.03;;
66639;SDS011;53549;52.164;5.604;2023-04-10T06:14:48;4.00;;;2.33;;
66639;SDS011;53549;52.164;5.604;2023-04-10T06:17:14;3.50;;;2.28;;
66639;SDS011;53549;52.164;5.604;2023-04-10T06:19:39;4.80;;;2.33;;
66639;SDS011;53549;52.164;5.604;2023-04-10T06:22:05;4.53;;;2.10;;
66639;SDS011;53549;52.164;5.604;2023-04-10T06:24:30;4.95;;;2.70;;
66639;SDS011;53549;52.164;5.604;2023-04-10T06:26:56;3.78;;;2.30;;
66639;SDS011;53549;52.164;5.604;2023-04-10T06:29:22;3.42;;;2.22;;
66639;SDS011;53549;52.164;5.604;2023-04-10T06:31:47;3.83;;;2.33;;
66639;SDS011;53549;52.164;5.604;2023-04-10T06:34:13;3.80;;;2.05;;
66639;SDS011;53549;52.164;5.604;2023-04-10T06:36:38;3.42;;;2.20;;
66639;SDS011;53549;52.164;5.604;2023-04-10T06:39:03;4.18;;;2.22;;
66639;SDS011;53549;52.164;5.604;2023-04-10T06:41:29;4.13;;;2.30;;
66639;SDS011;53549;52.164;5.604;2023-04-10T06:43:54;3.40;;;2.10;;
66639;SDS011;53549;52.164;5.604;2023-04-10T06:46:19;3.50;;;1.90;;
66639;SDS011;53549;52.164;5.604;2023-04-10T06:48:45;3.85;;;2.20;;
66639;SDS011;53549;52.164;5.604;2023-04-10T06:51:10;3.47;;;2.15;;
66639;SDS011;53549;52.164;5.604;2023-04-10T06:53:35;3.90;;;2.20;;
66639;SDS011;53549;52.164;5.604;2023-04-10T06:56:01;4.22;;;2.28;;
66639;SDS011;53549;52.164;5.604;2023-04-10T06:58:26;3.80;;;2.40;;
66639;SDS011;53549;52.164;5.604;2023-04-10T07:00:51;4.20;;;2.30;;
66639;SDS011;53549;52.164;5.604;2023-04-10T07:03:18;3.70;;;2.10;;
66639;SDS011;53549;52.164;5.604;2023-04-10T07:05:43;4.28;;;2.70;;
66639;SDS011;53549;52.164;5.604;2023-04-10T07:08:08;4.35;;;2.40;;
66639;SDS011;53549;52.164;5.604;2023-04-10T07:10:34;4.07;;;2.30;;
66639;SDS011;53549;52.164;5.604;2023-04-10T07:13:00;3.95;;;2.28;;
66639;SDS011;53549;52.164;5.604;2023-04-10T07:15:25;3.35;;;2.00;;
66639;SDS011;53549;52.164;5.604;2023-04-10T07:17:51;3.78;;;2.00;;
66639;SDS011;53549;52.164;5.604;2023-04-10T07:20:16;3.90;;;2.22;;
66639;SDS011;53549;52.164;5.604;2023-04-10T07:22:42;3.13;;;1.95;;
66639;SDS011;53549;52.164;5.604;2023-04-10T07:25:07;3.30;;;1.95;;
66639;SDS011;53549;52.164;5.604;2023-04-10T07:27:33;4.15;;;2.10;;
66639;SDS011;53549;52.164;5.604;2023-04-10T07:29:58;3.20;;;2.08;;
66639;SDS011;53549;52.164;5.604;2023-04-10T07:32:23;4.50;;;2.20;;
66639;SDS011;53549;52.164;5.604;2023-04-10T07:34:49;3.22;;;2.03;;
66639;SDS011;53549;52.164;5.604;2023-04-10T07:37:14;4.13;;;2.08;;
66639;SDS011;53549;52.164;5.604;2023-04-10T07:39:41;3.58;;;2.10;;
66639;SDS011;53549;52.164;5.604;2023-04-10T07:42:07;3.40;;;2.08;;
66639;SDS011;53549;52.164;5.604;2023-04-10T07:44:34;4.50;;;2.30;;
66639;SDS011;53549;52.164;5.604;2023-04-10T07:47:00;3.95;;;2.20;;
66639;SDS011;53549;52.164;5.604;2023-04-10T07:49:25;3.42;;;2.00;;
66639;SDS011;53549;52.164;5.604;2023-04-10T07:51:51;3.42;;;1.95;;
66639;SDS011;53549;52.164;5.604;2023-04-10T07:54:16;3.05;;;1.65;;
66639;SDS011;53549;52.164;5.604;2023-04-10T07:56:41;3.50;;;2.00;;
66639;SDS011;53549;52.164;5.604;2023-04-10T07:59:07;4.38;;;2.45;;
66639;SDS011;53549;52.164;5.604;2023-04-10T08:01:32;3.15;;;1.92;;
66639;SDS011;53549;52.164;5.604;2023-04-10T08:03:57;4.93;;;1.90;;
66639;SDS011;53549;52.164;5.604;2023-04-10T08:06:23;3.83;;;2.28;;
66639;SDS011;53549;52.164;5.604;2023-04-10T08:08:48;3.88;;;2.28;;
66639;SDS011;53549;52.164;5.604;2023-04-10T08:11:21;3.50;;;2.00;;
66639;SDS011;53549;52.164;5.604;2023-04-10T08:13:54;3.45;;;2.00;;
66639;SDS011;53549;52.164;5.604;2023-04-10T08:16:24;3.17;;;1.85;;
66639;SDS011;53549;52.164;5.604;2023-04-10T08:18:50;3.10;;;1.77;;
66639;SDS011;53549;52.164;5.604;2023-04-10T08:21:16;3.45;;;1.98;;
66639;SDS011;53549;52.164;5.604;2023-04-10T08:23:42;3.17;;;1.88;;
66639;SDS011;53549;52.164;5.604;2023-04-10T08:26:07;3.75;;;2.30;;
66639;SDS011;53549;52.164;5.604;2023-04-10T08:28:33;3.13;;;1.77;;
66639;SDS011;53549;52.164;5.604;2023-04-10T08:30:58;3.40;;;1.83;;
66639;SDS011;53549;52.164;5.604;2023-04-10T08:33:23;3.20;;;1.98;;
66639;SDS011;53549;52.164;5.604;2023-04-10T08:35:49;3.30;;;1.80;;
66639;SDS011;53549;52.164;5.604;2023-04-10T08:38:14;3.15;;;1.85;;
66639;SDS011;53549;52.164;5.604;2023-04-10T08:40:39;3.58;;;2.15;;
66639;SDS011;53549;52.164;5.604;2023-04-10T08:43:05;3.05;;;1.83;;
66639;SDS011;53549;52.164;5.604;2023-04-10T08:45:30;3.50;;;1.92;;
66639;SDS011;53549;52.164;5.604;2023-04-10T08:47:56;3.65;;;2.05;;
66639;SDS011;53549;52.164;5.604;2023-04-10T08:50:22;4.15;;;1.98;;
66639;SDS011;53549;52.164;5.604;2023-04-10T08:52:48;3.47;;;2.08;;
66639;SDS011;53549;52.164;5.604;2023-04-10T08:55:16;3.40;;;1.90;;
66639;SDS011;53549;52.164;5.604;2023-04-10T08:57:42;3.80;;;1.90;;
66639;SDS011;53549;52.164;5.604;2023-04-10T09:00:08;3.50;;;2.03;;
66639;SDS011;53549;52.164;5.604;2023-04-10T09:02:36;3.22;;;1.88;;
66639;SDS011;53549;52.164;5.604;2023-04-10T09:05:02;4.43;;;1.98;;
66639;SDS011;53549;52.164;5.604;2023-04-10T09:07:30;3.30;;;1.95;;
66639;SDS011;53549;52.164;5.604;2023-04-10T09:09:55;4.00;;;1.90;;
66639;SDS011;53549;52.164;5.604;2023-04-10T09:12:21;4.18;;;2.03;;
66639;SDS011;53549;52.164;5.604;2023-04-10T09:14:46;3.13;;;2.00;;
66639;SDS011;53549;52.164;5.604;2023-04-10T09:17:23;4.32;;;2.00;;
66639;SDS011;53549;52.164;5.604;2023-04-10T09:19:49;3.55;;;1.98;;
66639;SDS011;53549;52.164;5.604;2023-04-10T09:22:28;3.28;;;1.95;;
66639;SDS011;53549;52.164;5.604;2023-04-10T09:24:58;3.17;;;1.90;;
66639;SDS011;53549;52.164;5.604;2023-04-10T09:27:28;3.25;;;2.00;;
66639;SDS011;53549;52.164;5.604;2023-04-10T09:29:59;3.40;;;1.85;;
66639;SDS011;53549;52.164;5.604;2023-04-10T09:32:46;3.33;;;1.80;;
66639;SDS011;53549;52.164;5.604;2023-04-10T09:35:12;3.25;;;1.85;;
66639;SDS011;53549;52.164;5.604;2023-04-10T09:37:39;5.00;;;1.85;;
66639;SDS011;53549;52.164;5.604;2023-04-10T09:40:18;3.15;;;1.80;;
66639;SDS011;53549;52.164;5.604;2023-04-10T09:42:48;3.20;;;1.80;;
66639;SDS011;53549;52.164;5.604;2023-04-10T09:45:14;3.75;;;1.98;;
66639;SDS011;53549;52.164;5.604;2023-04-10T09:47:43;3.20;;;1.63;;
66639;SDS011;53549;52.164;5.604;2023-04-10T09:50:33;3.42;;;2.03;;
66639;SDS011;53549;52.164;5.604;2023-04-10T09:53:02;3.35;;;2.03;;
66639;SDS011;53549;52.164;5.604;2023-04-10T09:55:28;3.25;;;1.70;;
66639;SDS011;53549;52.164;5.604;2023-04-10T09:57:54;3.15;;;1.77;;
66639;SDS011;53549;52.164;5.604;2023-04-10T10:00:20;3.58;;;2.10;;
66639;SDS011;53549;52.164;5.604;2023-04-10T10:02:46;3.38;;;1.90;;
66639;SDS011;53549;52.164;5.604;2023-04-10T10:05:12;3.00;;;1.77;;
66639;SDS011;53549;52.164;5.604;2023-04-10T10:07:37;3.47;;;2.00;;
66639;SDS011;53549;52.164;5.604;2023-04-10T10:10:03;4.45;;;1.92;;
66639;SDS011;53549;52.164;5.604;2023-04-10T10:12:43;3.30;;;2.00;;
66639;SDS011;53549;52.164;5.604;2023-04-10T10:15:26;3.33;;;1.80;;
66639;SDS011;53549;52.164;5.604;2023-04-10T10:20:35;2.63;;;1.70;;
66639;SDS011;53549;52.164;5.604;2023-04-10T10:23:03;2.88;;;1.83;;
66639;SDS011;53549;52.164;5.604;2023-04-10T10:25:29;3.70;;;2.10;;
66639;SDS011;53549;52.164;5.604;2023-04-10T10:27:55;2.97;;;1.77;;
66639;SDS011;53549;52.164;5.604;2023-04-10T10:30:23;3.13;;;1.80;;
66639;SDS011;53549;52.164;5.604;2023-04-10T10:32:48;3.08;;;1.70;;
66639;SDS011;53549;52.164;5.604;2023-04-10T10:35:14;3.22;;;1.90;;
66639;SDS011;53549;52.164;5.604;2023-04-10T10:37:41;3.05;;;1.75;;
66639;SDS011;53549;52.164;5.604;2023-04-10T10:42:52;3.03;;;1.70;;
66639;SDS011;53549;52.164;5.604;2023-04-10T10:45:41;3.28;;;1.80;;
66639;SDS011;53549;52.164;5.604;2023-04-10T10:48:12;3.10;;;1.80;;
66639;SDS011;53549;52.164;5.604;2023-04-10T10:53:30;3.25;;;1.83;;
66639;SDS011;53549;52.164;5.604;2023-04-10T10:58:45;3.15;;;1.80;;
66639;SDS011;53549;52.164;5.604;2023-04-10T11:01:21;2.75;;;1.70;;
66639;SDS011;53549;52.164;5.604;2023-04-10T11:03:47;2.83;;;1.73;;
66639;SDS011;53549;52.164;5.604;2023-04-10T11:11:12;3.78;;;1.95;;
66639;SDS011;53549;52.164;5.604;2023-04-10T11:16:22;3.80;;;1.90;;
66639;SDS011;53549;52.164;5.604;2023-04-10T11:21:25;3.03;;;1.80;;
66639;SDS011;53549;52.164;5.604;2023-04-10T11:31:57;3.42;;;1.70;;
66639;SDS011;53549;52.164;5.604;2023-04-10T11:34:27;4.15;;;2.00;;
66639;SDS011;53549;52.164;5.604;2023-04-10T11:36:54;3.20;;;1.88;;
66639;SDS011;53549;52.164;5.604;2023-04-10T11:39:20;3.40;;;1.88;;
66639;SDS011;53549;52.164;5.604;2023-04-10T11:41:46;3.30;;;2.05;;
66639;SDS011;53549;52.164;5.604;2023-04-10T11:44:16;2.90;;;2.00;;
66639;SDS011;53549;52.164;5.604;2023-04-10T11:46:46;4.30;;;1.90;;
66639;SDS011;53549;52.164;5.604;2023-04-10T11:49:16;3.72;;;2.10;;
66639;SDS011;53549;52.164;5.604;2023-04-10T11:51:46;3.40;;;1.98;;
66639;SDS011;53549;52.164;5.604;2023-04-10T11:54:13;4.28;;;1.88;;
66639;SDS011;53549;52.164;5.604;2023-04-10T11:56:41;4.35;;;2.05;;
66639;SDS011;53549;52.164;5.604;2023-04-10T11:59:08;2.88;;;1.88;;
66639;SDS011;53549;52.164;5.604;2023-04-10T12:01:40;2.88;;;1.63;;
66639;SDS011;53549;52.164;5.604;2023-04-10T12:04:19;4.38;;;2.15;;
66639;SDS011;53549;52.164;5.604;2023-04-10T12:06:48;3.17;;;1.98;;
66639;SDS011;53549;52.164;5.604;2023-04-10T12:09:18;2.95;;;1.92;;
66639;SDS011;53549;52.164;5.604;2023-04-10T12:11:52;3.13;;;1.90;;
66639;SDS011;53549;52.164;5.604;2023-04-10T12:14:19;3.50;;;2.03;;
66639;SDS011;53549;52.164;5.604;2023-04-10T12:16:45;3.28;;;2.10;;
66639;SDS011;53549;52.164;5.604;2023-04-10T12:19:11;2.80;;;1.77;;
66639;SDS011;53549;52.164;5.604;2023-04-10T12:21:38;2.95;;;1.90;;
66639;SDS011;53549;52.164;5.604;2023-04-10T12:24:05;3.47;;;2.00;;
66639;SDS011;53549;52.164;5.604;2023-04-10T12:26:31;3.70;;;2.13;;
66639;SDS011;53549;52.164;5.604;2023-04-10T12:28:56;3.13;;;1.90;;
66639;SDS011;53549;52.164;5.604;2023-04-10T12:31:32;3.17;;;1.63;;
66639;SDS011;53549;52.164;5.604;2023-04-10T12:34:00;3.85;;;2.00;;
66639;SDS011;53549;52.164;5.604;2023-04-10T12:36:27;4.00;;;1.77;;
66639;SDS011;53549;52.164;5.604;2023-04-10T12:38:54;2.97;;;1.77;;
66639;SDS011;53549;52.164;5.604;2023-04-10T12:41:30;2.92;;;1.70;;
66639;SDS011;53549;52.164;5.604;2023-04-10T12:44:10;2.90;;;1.83;;
66639;SDS011;53549;52.164;5.604;2023-04-10T12:46:36;3.20;;;1.90;;
66639;SDS011;53549;52.164;5.604;2023-04-10T12:49:13;2.95;;;1.85;;
66639;SDS011;53549;52.164;5.604;2023-04-10T12:51:49;3.38;;;1.85;;
66639;SDS011;53549;52.164;5.604;2023-04-10T12:54:28;2.72;;;1.65;;
66639;SDS011;53549;52.164;5.604;2023-04-10T12:56:55;3.05;;;1.73;;
66639;SDS011;53549;52.164;5.604;2023-04-10T12:59:21;3.00;;;1.70;;
66639;SDS011;53549;52.164;5.604;2023-04-10T13:01:47;3.22;;;1.70;;
66639;SDS011;53549;52.164;5.604;2023-04-10T13:04:12;2.85;;;1.80;;
66639;SDS011;53549;52.164;5.604;2023-04-10T13:06:41;3.55;;;2.00;;
66639;SDS011;53549;52.164;5.604;2023-04-10T13:09:08;3.20;;;1.60;;
66639;SDS011;53549;52.164;5.604;2023-04-10T13:11:33;3.63;;;1.80;;
66639;SDS011;53549;52.164;5.604;2023-04-10T13:13:58;3.05;;;1.75;;
66639;SDS011;53549;52.164;5.604;2023-04-10T13:16:24;2.83;;;1.70;;
66639;SDS011;53549;52.164;5.604;2023-04-10T13:18:49;2.55;;;1.55;;
66639;SDS011;53549;52.164;5.604;2023-04-10T13:21:14;3.17;;;1.80;;
66639;SDS011;53549;52.164;5.604;2023-04-10T13:23:43;2.97;;;1.55;;
66639;SDS011;53549;52.164;5.604;2023-04-10T13:26:09;2.75;;;1.70;;
66639;SDS011;53549;52.164;5.604;2023-04-10T13:28:34;3.33;;;1.80;;
66639;SDS011;53549;52.164;5.604;2023-04-10T13:31:00;2.70;;;1.60;;
66639;SDS011;53549;52.164;5.604;2023-04-10T13:33:25;3.38;;;2.05;;
66639;SDS011;53549;52.164;5.604;2023-04-10T13:35:50;2.95;;;1.85;;
66639;SDS011;53549;52.164;5.604;2023-04-10T13:38:15;3.13;;;1.80;;
66639;SDS011;53549;52.164;5.604;2023-04-10T13:40:41;3.30;;;1.95;;
66639;SDS011;53549;52.164;5.604;2023-04-10T13:43:06;3.83;;;1.90;;
66639;SDS011;53549;52.164;5.604;2023-04-10T13:45:32;2.97;;;1.77;;
66639;SDS011;53549;52.164;5.604;2023-04-10T13:47:58;3.10;;;1.75;;
66639;SDS011;53549;52.164;5.604;2023-04-10T13:50:24;4.00;;;1.85;;
66639;SDS011;53549;52.164;5.604;2023-04-10T13:52:49;3.00;;;1.60;;
66639;SDS011;53549;52.164;5.604;2023-04-10T13:55:15;2.97;;;1.67;;
66639;SDS011;53549;52.164;5.604;2023-04-10T13:57:40;2.78;;;1.67;;
66639;SDS011;53549;52.164;5.604;2023-04-10T14:00:06;3.22;;;1.70;;
66639;SDS011;53549;52.164;5.604;2023-04-10T14:02:32;2.80;;;1.70;;
66639;SDS011;53549;52.164;5.604;2023-04-10T14:04:58;3.63;;;1.73;;
66639;SDS011;53549;52.164;5.604;2023-04-10T14:07:23;3.42;;;1.70;;
66639;SDS011;53549;52.164;5.604;2023-04-10T14:09:48;4.05;;;1.90;;
66639;SDS011;53549;52.164;5.604;2023-04-10T14:12:14;3.10;;;1.90;;
66639;SDS011;53549;52.164;5.604;2023-04-10T14:14:43;3.47;;;1.60;;
66639;SDS011;53549;52.164;5.604;2023-04-10T14:17:09;2.75;;;1.58;;
66639;SDS011;53549;52.164;5.604;2023-04-10T14:19:34;3.25;;;1.60;;
66639;SDS011;53549;52.164;5.604;2023-04-10T14:22:01;4.13;;;1.92;;
66639;SDS011;53549;52.164;5.604;2023-04-10T14:24:26;3.20;;;1.63;;
66639;SDS011;53549;52.164;5.604;2023-04-10T14:26:52;3.00;;;1.48;;
66639;SDS011;53549;52.164;5.604;2023-04-10T14:29:22;3.05;;;1.80;;
66639;SDS011;53549;52.164;5.604;2023-04-10T14:31:48;3.40;;;1.95;;
66639;SDS011;53549;52.164;5.604;2023-04-10T14:34:15;4.63;;;1.80;;
66639;SDS011;53549;52.164;5.604;2023-04-10T14:36:40;3.50;;;1.80;;
66639;SDS011;53549;52.164;5.604;2023-04-10T14:39:05;3.33;;;1.80;;
66639;SDS011;53549;52.164;5.604;2023-04-10T14:41:31;2.95;;;1.80;;
66639;SDS011;53549;52.164;5.604;2023-04-10T14:43:56;3.70;;;1.80;;
66639;SDS011;53549;52.164;5.604;2023-04-10T14:46:21;4.28;;;1.73;;
66639;SDS011;53549;52.164;5.604;2023-04-10T14:48:47;3.67;;;1.80;;
66639;SDS011;53549;52.164;5.604;2023-04-10T14:51:12;2.92;;;1.50;;
66639;SDS011;53549;52.164;5.604;2023-04-10T14:53:38;3.10;;;1.77;;
66639;SDS011;53549;52.164;5.604;2023-04-10T14:56:13;2.70;;;1.50;;
66639;SDS011;53549;52.164;5.604;2023-04-10T14:58:39;2.75;;;1.50;;
66639;SDS011;53549;52.164;5.604;2023-04-10T15:01:08;2.88;;;1.67;;
66639;SDS011;53549;52.164;5.604;2023-04-10T15:03:34;3.47;;;1.70;;
66639;SDS011;53549;52.164;5.604;2023-04-10T15:05:59;2.83;;;1.65;;
66639;SDS011;53549;52.164;5.604;2023-04-10T15:08:25;2.90;;;1.55;;
66639;SDS011;53549;52.164;5.604;2023-04-10T15:10:50;4.53;;;1.67;;
66639;SDS011;53549;52.164;5.604;2023-04-10T15:13:17;3.33;;;1.83;;
66639;SDS011;53549;52.164;5.604;2023-04-10T15:15:43;3.28;;;1.60;;
66639;SDS011;53549;52.164;5.604;2023-04-10T15:18:09;3.03;;;1.60;;
66639;SDS011;53549;52.164;5.604;2023-04-10T15:20:34;2.97;;;1.63;;
66639;SDS011;53549;52.164;5.604;2023-04-10T15:23:00;3.25;;;1.70;;
66639;SDS011;53549;52.164;5.604;2023-04-10T15:25:26;2.97;;;1.65;;
66639;SDS011;53549;52.164;5.604;2023-04-10T15:27:53;3.22;;;1.55;;